createdAt,value
2022-12-08T00:44:37.326Z,36.13
2022-12-08T01:37:20.744Z,43.10
2022-12-08T01:40:04.039Z,39.17
2022-12-08T01:42:50.611Z,25.52
2022-12-08T01:55:04.804Z,34.65
2022-12-08T01:57:46.569Z,34.45
2022-12-08T02:00:19.770Z,26.33
2022-12-08T02:03:16.644Z,28.73
2022-12-08T02:08:45.625Z,30.88
2022-12-08T02:11:21.999Z,28.05
2022-12-08T02:13:58.730Z,27.52
2022-12-08T02:16:49.528Z,28.55
2022-12-08T02:24:50.777Z,26.70
2022-12-08T02:27:50.217Z,25.60
2022-12-08T02:31:05.558Z,26.67
2022-12-08T02:34:03.207Z,22.35
2022-12-08T02:37:17.442Z,16.10
2022-12-08T02:51:23.085Z,16.23
2022-12-08T02:53:58.666Z,17.25
2022-12-08T02:57:28.043Z,17.10
2022-12-08T03:00:27.973Z,15.50
2022-12-08T03:31:42.193Z,16.30
2022-12-08T03:57:17.335Z,14.17
2022-12-08T04:19:01.494Z,26.10
2022-12-08T04:32:50.361Z,22.35
2022-12-08T04:38:12.314Z,23.92
2022-12-08T04:40:40.992Z,20.75
2022-12-08T04:43:09.183Z,26.10
2022-12-08T04:45:50.872Z,21.25
2022-12-08T04:48:45.119Z,24.83
2022-12-08T04:51:19.458Z,25.00
2022-12-08T05:00:04.977Z,21.52
2022-12-08T05:02:34.832Z,23.35
2022-12-08T06:06:25.947Z,18.10
2022-12-08T06:09:17.114Z,28.02
2022-12-08T07:07:28.183Z,19.73
2022-12-08T07:10:00.758Z,27.50
2022-12-08T07:12:35.755Z,22.10
2022-12-08T07:15:04.866Z,21.42
2022-12-08T07:17:33.152Z,23.50
2022-12-08T07:20:02.728Z,24.50
2022-12-08T07:22:43.989Z,23.40
2022-12-08T07:25:25.252Z,25.77
2022-12-08T07:56:23.394Z,39.65
2022-12-08T07:59:00.241Z,41.35
2022-12-08T08:06:00.186Z,46.55
2022-12-08T08:12:33.723Z,46.73
2022-12-08T08:15:40.230Z,37.75
2022-12-08T08:19:17.210Z,39.78
2022-12-08T08:37:09.609Z,26.08
2022-12-08T08:52:13.805Z,22.95
2022-12-08T08:54:46.059Z,27.05
2022-12-08T08:57:13.784Z,27.13
2022-12-08T08:59:50.224Z,24.25
2022-12-08T09:02:19.513Z,22.50
2022-12-08T09:04:59.766Z,24.42
2022-12-08T09:07:46.649Z,28.75
2022-12-08T09:10:14.542Z,28.38
2022-12-08T09:12:42.114Z,30.55
2022-12-08T09:15:16.317Z,33.13
2022-12-08T09:17:43.931Z,32.97
2022-12-08T09:20:17.278Z,33.72
2022-12-08T09:22:45.044Z,27.30
2022-12-08T09:25:12.574Z,26.23
2022-12-08T09:27:40.163Z,28.15
2022-12-08T09:30:08.929Z,30.40
2022-12-08T09:32:36.654Z,23.00
2022-12-08T09:35:04.641Z,32.47
2022-12-08T09:37:32.458Z,21.27
2022-12-08T09:40:00.188Z,20.52
2022-12-08T09:42:51.522Z,21.15
2022-12-08T09:45:20.232Z,22.67
2022-12-08T09:47:53.918Z,17.33
2022-12-08T09:50:34.271Z,19.40
2022-12-08T09:53:35.523Z,19.85
2022-12-08T09:56:12.407Z,18.77
2022-12-08T09:58:57.575Z,21.15
2022-12-08T10:01:32.969Z,22.80
2022-12-08T10:04:01.812Z,20.63
2022-12-08T10:06:40.818Z,20.35
2022-12-08T10:09:30.380Z,20.35
2022-12-08T10:12:00.645Z,20.10
2022-12-08T10:14:50.026Z,21.52
2022-12-08T10:17:28.700Z,18.50
2022-12-08T10:20:07.033Z,22.30
2022-12-08T10:22:45.049Z,21.13
2022-12-08T10:25:18.236Z,21.90
2022-12-08T10:27:49.951Z,19.08
2022-12-08T10:30:19.867Z,21.85
2022-12-08T10:32:51.267Z,22.42
2022-12-08T10:35:23.950Z,19.65
2022-12-08T10:38:02.383Z,20.35
2022-12-08T10:40:39.245Z,15.32
2022-12-08T10:43:52.829Z,18.67
2022-12-08T10:46:38.367Z,29.08
2022-12-08T10:49:06.434Z,19.95
2022-12-08T10:51:34.030Z,21.77
2022-12-08T10:54:05.816Z,19.63
2022-12-08T10:56:34.021Z,21.85
2022-12-08T10:59:20.318Z,23.70
2022-12-08T11:01:54.813Z,20.42
2022-12-08T11:04:44.727Z,19.58
2022-12-08T11:07:23.176Z,24.02
2022-12-08T11:09:57.601Z,21.80
2022-12-08T11:12:29.954Z,19.17
2022-12-08T11:15:03.393Z,17.30
2022-12-08T11:17:41.401Z,20.63
2022-12-08T11:20:16.715Z,19.58
2022-12-08T11:22:55.805Z,17.77
2022-12-08T11:25:26.106Z,16.02
2022-12-08T11:27:58.086Z,20.25
2022-12-08T11:30:30.992Z,21.48
2022-12-08T11:33:21.372Z,21.67
2022-12-08T11:35:57.908Z,19.17
2022-12-08T11:38:27.378Z,19.52
2022-12-08T11:41:01.195Z,26.85
2022-12-08T11:43:35.026Z,19.42
2022-12-08T11:46:17.900Z,21.20
2022-12-08T11:48:48.979Z,21.33
2022-12-08T11:51:37.447Z,24.45
2022-12-08T11:54:43.299Z,18.58
2022-12-08T11:57:20.737Z,22.77
2022-12-08T11:59:54.720Z,21.00
2022-12-08T12:02:31.634Z,22.60
2022-12-08T12:05:55.367Z,21.42
2022-12-08T12:08:26.560Z,23.90
2022-12-08T12:11:12.880Z,23.48
2022-12-08T12:14:06.065Z,27.95
2022-12-08T12:16:42.672Z,27.35
2022-12-08T12:19:19.549Z,32.17
2022-12-08T12:21:51.513Z,29.02
2022-12-08T12:24:36.169Z,25.73
2022-12-08T12:30:02.408Z,27.75
2022-12-08T12:32:45.632Z,29.88
2022-12-08T12:35:37.161Z,31.05
2022-12-08T12:38:54.463Z,28.45
2022-12-08T12:41:28.003Z,25.33
2022-12-08T12:44:14.017Z,28.45
2022-12-08T12:46:41.467Z,25.80
2022-12-08T12:49:40.309Z,32.45
2022-12-08T12:52:16.637Z,27.23
2022-12-08T12:54:51.111Z,26.50
2022-12-08T13:00:05.519Z,25.63
2022-12-08T13:02:36.496Z,28.92
2022-12-08T13:05:27.043Z,26.38
2022-12-08T13:07:59.170Z,28.52
2022-12-08T13:10:29.575Z,27.48
2022-12-08T13:13:12.822Z,30.58
2022-12-08T13:15:48.807Z,27.17
2022-12-08T13:18:28.593Z,25.38
2022-12-08T13:21:22.663Z,29.10
2022-12-08T13:24:18.150Z,30.80
2022-12-08T13:27:04.199Z,30.13
2022-12-08T13:29:37.429Z,28.00
2022-12-08T13:32:08.245Z,26.10
2022-12-08T13:34:47.085Z,26.77
2022-12-08T13:37:23.625Z,30.02
2022-12-08T13:40:05.692Z,30.20
2022-12-08T13:42:43.187Z,29.30
2022-12-08T13:45:40.083Z,30.60
2022-12-08T13:49:09.677Z,28.63
2022-12-08T13:55:49.804Z,27.42
2022-12-08T13:57:29.110Z,35.08
2022-12-08T14:00:07.307Z,27.75
2022-12-08T14:02:47.693Z,27.75
2022-12-08T14:05:20.614Z,34.08
2022-12-08T14:07:56.941Z,29.00
2022-12-08T14:10:33.423Z,33.28
2022-12-08T14:13:08.778Z,33.63
2022-12-08T14:15:38.635Z,23.40
2022-12-08T14:18:21.615Z,29.08
2022-12-08T14:21:20.854Z,27.92
2022-12-08T14:23:49.603Z,24.67
2022-12-08T14:26:18.077Z,27.85
2022-12-08T14:28:47.290Z,29.52
2022-12-08T14:31:16.966Z,26.58
2022-12-08T14:33:44.685Z,31.38
2022-12-08T14:36:21.430Z,26.40
2022-12-08T14:38:52.930Z,27.73
2022-12-08T14:41:28.224Z,25.10
2022-12-08T14:44:01.312Z,31.90
2022-12-08T14:46:30.062Z,31.73
2022-12-08T14:49:04.642Z,28.38
2022-12-08T14:51:34.084Z,23.90
2022-12-08T14:54:09.694Z,27.10
2022-12-08T14:56:52.266Z,26.83
2022-12-08T14:59:23.043Z,28.10
2022-12-08T15:01:53.639Z,27.38
2022-12-08T15:04:28.498Z,29.70
2022-12-08T15:07:15.344Z,26.20
2022-12-08T15:09:47.304Z,29.40
2022-12-08T15:12:14.871Z,33.45
2022-12-08T15:15:10.009Z,33.03
2022-12-08T15:20:34.981Z,36.42
2022-12-08T15:25:35.915Z,41.97
2022-12-08T15:28:16.572Z,41.47
2022-12-08T15:30:44.229Z,45.05
2022-12-08T15:33:11.759Z,40.67
2022-12-08T15:35:41.125Z,43.30
2022-12-08T15:38:23.485Z,63.33
2022-12-08T15:40:55.107Z,77.60
2022-12-08T15:43:24.885Z,46.97
2022-12-08T15:45:59.484Z,45.95
2022-12-08T15:48:30.067Z,41.00
2022-12-08T15:50:58.271Z,42.97
2022-12-08T15:53:26.092Z,39.08
2022-12-08T15:56:25.723Z,38.78
2022-12-08T15:58:57.953Z,33.17
2022-12-08T16:09:40.174Z,37.85
2022-12-08T16:15:53.399Z,33.05
2022-12-08T16:18:24.943Z,35.90
2022-12-08T16:23:43.694Z,35.53
2022-12-08T16:27:22.144Z,31.50
2022-12-08T16:29:20.038Z,32.70
2022-12-08T16:31:47.886Z,32.22
2022-12-08T16:34:15.664Z,36.63
2022-12-08T16:36:43.368Z,37.22
2022-12-08T16:39:13.228Z,34.00
2022-12-08T16:42:05.649Z,36.70
2022-12-08T16:44:33.660Z,31.80
2022-12-08T16:47:10.643Z,32.42
2022-12-08T16:49:51.204Z,40.83
2022-12-08T16:52:31.334Z,37.55
2022-12-08T16:55:08.146Z,32.67
2022-12-08T16:57:40.373Z,40.00
2022-12-08T17:00:17.528Z,30.77
2022-12-08T17:03:03.793Z,31.05
2022-12-08T17:05:39.645Z,32.25
2022-12-08T17:08:14.168Z,30.15
2022-12-08T17:10:46.041Z,30.83
2022-12-08T17:13:17.887Z,34.30
2022-12-08T17:16:01.029Z,32.90
2022-12-08T17:18:32.084Z,37.22
2022-12-08T17:21:00.030Z,44.95
2022-12-08T17:23:36.948Z,39.17
2022-12-08T17:26:05.728Z,43.05
2022-12-08T17:28:59.600Z,40.33
2022-12-08T17:31:33.457Z,44.30
2022-12-08T17:34:06.272Z,43.30
2022-12-08T17:37:02.603Z,54.63
2022-12-08T17:39:44.862Z,59.45
2022-12-08T17:42:17.384Z,64.38
2022-12-08T17:44:54.585Z,69.03
2022-12-08T17:47:23.504Z,59.30
2022-12-08T17:49:56.190Z,53.70
2022-12-08T17:52:24.008Z,40.95
2022-12-08T17:54:56.000Z,34.90
2022-12-08T17:57:34.887Z,35.92
2022-12-08T18:00:12.746Z,33.50
2022-12-08T18:02:46.968Z,38.55
2022-12-08T18:05:27.770Z,40.22
2022-12-08T18:08:36.965Z,51.75
2022-12-08T18:11:23.074Z,40.47
2022-12-08T18:14:01.756Z,45.55
2022-12-08T18:16:43.066Z,40.95
2022-12-08T18:19:29.153Z,37.63
2022-12-08T18:22:00.133Z,44.72
2022-12-08T18:24:31.928Z,46.00
2022-12-08T18:26:59.580Z,53.03
2022-12-08T18:29:27.583Z,46.28
2022-12-08T18:31:55.136Z,40.30
2022-12-08T18:34:23.001Z,40.97
2022-12-08T18:36:50.636Z,36.58
2022-12-08T18:42:31.729Z,37.75
2022-12-08T18:45:08.777Z,35.58
2022-12-08T18:47:43.678Z,45.65
2022-12-08T18:50:11.874Z,40.55
2022-12-08T18:52:40.965Z,32.92
2022-12-08T18:55:09.346Z,36.80
2022-12-08T18:57:38.731Z,32.97
2022-12-08T19:00:08.235Z,34.97
2022-12-08T19:02:37.342Z,33.05
2022-12-08T19:05:06.557Z,34.80
2022-12-08T19:07:34.553Z,43.72
2022-12-08T19:10:02.338Z,47.85
2022-12-08T19:12:30.027Z,43.38
2022-12-08T19:14:58.013Z,42.42
2022-12-08T19:17:26.041Z,51.28
2022-12-08T19:19:53.673Z,36.67
2022-12-08T19:22:21.186Z,36.40
2022-12-08T19:24:49.072Z,41.17
2022-12-08T19:27:17.062Z,42.25
2022-12-08T19:29:44.554Z,33.58
2022-12-08T19:32:12.438Z,37.60
2022-12-08T19:34:40.068Z,39.42
2022-12-08T19:37:09.071Z,34.85
2022-12-08T19:39:55.141Z,51.08
2022-12-08T19:42:41.054Z,42.47
2022-12-08T19:45:13.324Z,33.83
2022-12-08T19:47:41.359Z,41.17
2022-12-08T19:50:29.309Z,41.88
2022-12-08T19:52:57.093Z,48.17
2022-12-08T19:55:25.349Z,45.67
2022-12-08T19:57:53.720Z,51.03
2022-12-08T20:00:21.961Z,40.80
2022-12-08T20:02:50.021Z,44.72
2022-12-08T20:05:17.771Z,40.85
2022-12-08T20:07:45.495Z,46.30
2022-12-08T20:10:19.829Z,47.13
2022-12-08T20:12:47.544Z,54.10
2022-12-08T20:15:15.140Z,44.63
2022-12-08T20:17:43.195Z,34.35
2022-12-08T20:20:13.164Z,41.20
2022-12-08T20:22:45.356Z,41.70
2022-12-08T20:25:13.427Z,42.80
2022-12-08T20:27:41.831Z,41.63
2022-12-08T20:30:16.474Z,39.83
2022-12-08T20:32:45.043Z,40.85
2022-12-08T20:35:13.052Z,40.00
2022-12-08T20:37:40.590Z,47.75
2022-12-08T20:40:08.844Z,46.75
2022-12-08T20:42:36.354Z,48.88
2022-12-08T20:45:06.724Z,43.10
2022-12-08T20:47:34.541Z,46.33
2022-12-08T20:50:03.833Z,41.28
2022-12-08T20:52:32.242Z,36.95
2022-12-08T20:54:59.877Z,43.55
2022-12-08T20:57:27.872Z,41.10
2022-12-08T20:59:56.081Z,41.13
2022-12-08T21:02:23.736Z,39.42
2022-12-08T21:04:51.422Z,45.30
2022-12-08T21:07:19.163Z,40.45
2022-12-08T21:09:46.932Z,39.83
2022-12-08T21:12:14.787Z,47.38
2022-12-08T21:14:42.398Z,42.78
2022-12-08T21:17:10.252Z,39.50
2022-12-08T21:19:38.292Z,36.47
2022-12-08T21:22:06.196Z,40.17
2022-12-08T21:24:34.823Z,40.97
2022-12-08T21:27:02.640Z,49.15
2022-12-08T21:29:30.222Z,45.58
2022-12-08T21:31:58.929Z,46.03
2022-12-08T21:34:31.971Z,45.75
2022-12-08T21:37:00.327Z,54.05
2022-12-08T21:39:28.268Z,52.10
2022-12-08T21:42:14.652Z,54.67
2022-12-08T21:44:42.368Z,62.80
2022-12-08T21:47:10.350Z,56.13
2022-12-08T21:49:38.241Z,64.57
2022-12-08T21:52:05.936Z,65.95
2022-12-08T21:54:33.756Z,63.53
2022-12-08T21:57:01.399Z,66.93
2022-12-08T21:59:29.063Z,62.13
2022-12-08T22:01:56.853Z,60.30
2022-12-08T22:04:25.637Z,57.95
2022-12-08T22:06:53.349Z,61.67
2022-12-08T22:09:21.155Z,58.00
2022-12-08T22:11:48.933Z,57.05
2022-12-08T22:14:16.775Z,59.90
2022-12-08T22:16:44.819Z,61.08
2022-12-08T22:19:13.578Z,56.35
2022-12-08T22:21:42.081Z,54.85
2022-12-08T22:24:10.226Z,62.22
2022-12-08T22:26:38.281Z,61.88
2022-12-08T22:29:06.369Z,57.22
2022-12-08T22:31:34.307Z,58.88
2022-12-08T22:34:01.961Z,59.03
2022-12-08T22:36:29.990Z,57.63
2022-12-08T22:39:00.278Z,57.85
2022-12-08T22:41:28.040Z,55.33
2022-12-08T22:43:55.787Z,57.63
2022-12-08T22:46:27.989Z,54.95
2022-12-08T22:48:59.177Z,58.72
2022-12-08T22:51:33.195Z,52.78
2022-12-08T22:54:20.941Z,54.78
2022-12-08T22:56:55.877Z,58.00
2022-12-08T22:59:23.901Z,61.50
2022-12-08T23:01:56.880Z,57.05
2022-12-08T23:04:26.708Z,53.58
2022-12-08T23:06:54.746Z,56.85
2022-12-08T23:09:22.616Z,53.25
2022-12-08T23:11:51.153Z,53.80
2022-12-08T23:14:19.080Z,51.45
2022-12-08T23:19:28.747Z,52.95
2022-12-08T23:21:56.718Z,54.17
2022-12-08T23:24:33.411Z,56.78
2022-12-08T23:27:09.721Z,53.40
2022-12-08T23:29:56.337Z,54.70
2022-12-08T23:32:29.566Z,53.30
2022-12-08T23:35:33.183Z,54.88
2022-12-08T23:38:45.542Z,55.97
2022-12-08T23:41:16.129Z,58.88
2022-12-08T23:43:53.297Z,65.30
2022-12-08T23:46:26.935Z,55.70
2022-12-08T23:49:03.479Z,60.78
2022-12-08T23:51:31.594Z,64.75
2022-12-08T23:57:08.825Z,53.88
2022-12-08T23:59:37.315Z,47.17
